Time;durP1;ratioP1;P1;durP2;ratioP2;P2;SDS_P1;SDS_P2;PMS_P1;PMS_P2;Temp;Humidity;BMP_temperature;BMP_pressure;BME280_temperature;BME280_humidity;BME280_pressure;Samples;Min_cycle;Max_cycle;Signal;HPM_P1;HPM_P2
2021/07/22 00:02:20;;;;;;;31.45;29.20;;;;;;;18.62;100.00;101146.94;5044599;28;20057;-80
2021/07/22 00:04:47;;;;;;;33.53;31.42;;;;;;;18.48;100.00;101138.41;5042177;28;20083;-81
2021/07/22 00:07:14;;;;;;;33.85;31.48;;;;;;;18.88;100.00;101140.03;5038795;28;20049;-81
2021/07/22 00:09:42;;;;;;;32.08;29.77;;;;;;;18.61;100.00;101141.78;5034629;28;20485;-80
2021/07/22 00:12:09;;;;;;;32.90;30.20;;;;;;;18.68;100.00;101134.38;5044682;28;20122;-81
2021/07/22 00:14:36;;;;;;;31.80;29.70;;;;;;;18.53;100.00;101137.66;5043614;28;20041;-81
2021/07/22 00:17:04;;;;;;;32.92;30.73;;;;;;;18.51;100.00;101139.78;5042113;28;20053;-82
2021/07/22 00:19:31;;;;;;;31.20;28.90;;;;;;;18.46;100.00;101137.03;5042009;28;20394;-79
2021/07/22 00:21:58;;;;;;;33.10;30.38;;;;;;;18.68;100.00;101137.06;5040077;28;20052;-78
2021/07/22 00:24:25;;;;;;;33.50;31.13;;;;;;;18.58;100.00;101134.22;5037677;28;20049;-78
2021/07/22 00:26:54;;;;;;;32.28;29.77;;;;;;;18.38;100.00;101142.84;5045201;28;20053;-80
2021/07/22 00:29:21;;;;;;;32.00;29.75;;;;;;;18.55;100.00;101138.25;5043208;28;20060;-80
2021/07/22 00:31:48;;;;;;;33.58;31.17;;;;;;;18.62;100.00;101138.88;5046219;28;20053;-79
2021/07/22 00:34:15;;;;;;;33.03;30.42;;;;;;;18.45;100.00;101146.97;5038158;28;20053;-78
2021/07/22 00:36:42;;;;;;;33.05;30.55;;;;;;;18.35;100.00;101146.84;5038524;28;20049;-81
2021/07/22 00:39:08;;;;;;;29.92;27.92;;;;;;;18.55;100.00;101140.94;5044618;28;20122;-78
2021/07/22 00:41:39;;;;;;;32.70;29.95;;;;;;;18.55;100.00;101140.94;5047184;28;20056;-78
2021/07/22 00:44:07;;;;;;;35.10;32.50;;;;;;;18.59;100.00;101142.06;5046789;28;20136;-81
2021/07/22 00:46:34;;;;;;;33.83;31.15;;;;;;;18.14;100.00;101152.97;5045447;28;20080;-78
2021/07/22 00:49:01;;;;;;;34.83;32.03;;;;;;;18.61;100.00;101152.56;5042659;28;20050;-78
2021/07/22 00:51:28;;;;;;;34.90;32.60;;;;;;;18.39;100.00;101145.25;5047048;28;20060;-81
2021/07/22 00:53:55;;;;;;;33.55;30.80;;;;;;;18.39;100.00;101149.84;5054377;28;20053;-79
2021/07/22 00:56:21;;;;;;;33.45;31.15;;;;;;;18.59;100.00;101142.06;5045710;28;20049;-81
2021/07/22 00:58:48;;;;;;;33.63;31.33;;;;;;;18.57;100.00;101138.78;5041692;28;20056;-81
2021/07/22 01:01:16;;;;;;;32.00;29.80;;;;;;;18.62;100.00;101143.44;5047728;28;20052;-81
2021/07/22 01:03:44;;;;;;;32.55;30.45;;;;;;;18.77;100.00;101140.97;5039084;28;20043;-80
2021/07/22 01:06:11;;;;;;;34.05;31.65;;;;;;;18.70;100.00;101143.00;5047846;28;20049;-78
2021/07/22 01:08:37;;;;;;;32.55;30.35;;;;;;;18.45;100.00;101151.53;5048564;28;20114;-81
2021/07/22 01:11:04;;;;;;;34.00;31.60;;;;;;;18.68;100.00;101147.81;5050062;28;20180;-84
2021/07/22 01:13:31;;;;;;;34.17;31.63;;;;;;;18.77;100.00;101152.53;5046759;28;20075;-78
2021/07/22 01:15:58;;;;;;;34.78;32.58;;;;;;;18.67;100.00;101143.47;5047705;28;20049;-79
2021/07/22 01:18:26;;;;;;;34.25;31.73;;;;;;;18.60;100.00;101146.38;5039824;28;20099;-81
2021/07/22 01:20:54;;;;;;;33.58;31.13;;;;;;;18.48;100.00;101148.34;5042172;28;20053;-81
2021/07/22 01:23:21;;;;;;;32.67;30.52;;;;;;;18.83;100.00;101139.97;5037739;28;20114;-78
2021/07/22 01:25:47;;;;;;;31.27;28.65;;;;;;;18.59;100.00;101152.00;5040126;28;20049;-81
2021/07/22 01:28:14;;;;;;;33.13;30.92;;;;;;;18.54;100.00;101147.34;5046329;28;20045;-82
2021/07/22 01:30:41;;;;;;;33.35;30.92;;;;;;;18.49;100.00;101156.19;5049251;28;20596;-79
2021/07/22 01:33:08;;;;;;;33.08;30.40;;;;;;;18.43;100.00;101157.19;5046894;28;20118;-79
2021/07/22 01:35:35;;;;;;;31.05;28.98;;;;;;;18.51;100.00;101155.91;5045275;28;20049;-82
2021/07/22 01:38:03;;;;;;;34.03;31.85;;;;;;;18.67;100.00;101163.16;5049489;28;20052;-78
2021/07/22 01:40:29;;;;;;;30.23;28.27;;;;;;;18.59;100.00;101168.94;5048029;28;20470;-81
2021/07/22 01:42:56;;;;;;;33.63;31.15;;;;;;;17.91;100.00;101160.13;5044958;28;20490;-81
2021/07/22 01:45:23;;;;;;;34.45;32.05;;;;;;;18.32;100.00;101168.84;5045363;28;20470;-81
2021/07/22 01:47:50;;;;;;;30.98;29.00;;;;;;;18.61;100.00;101157.94;5044871;28;20045;-81
2021/07/22 01:50:17;;;;;;;32.22;30.02;;;;;;;18.69;100.00;101162.88;5043250;28;20049;-79
2021/07/22 01:52:44;;;;;;;31.70;29.38;;;;;;;18.63;100.00;101153.94;5047914;28;20061;-79
2021/07/22 01:55:12;;;;;;;31.38;29.17;;;;;;;18.63;100.00;101153.94;5043298;28;20045;-79
2021/07/22 01:57:38;;;;;;;33.38;31.08;;;;;;;18.39;100.00;101156.03;5044414;28;20063;-81
2021/07/22 02:02:47;;;;;;;41.83;38.72;;;;;;;18.04;100.00;101175.13;5065711;23;20453;-81
2021/07/22 02:05:14;;;;;;;39.92;36.70;;;;;;;17.81;100.00;101168.03;5021646;28;20049;-86
2021/07/22 02:07:40;;;;;;;38.33;35.45;;;;;;;18.06;100.00;101173.00;5026737;28;20053;-82
2021/07/22 02:10:08;;;;;;;36.40;33.70;;;;;;;18.33;100.00;101175.84;5016746;28;20053;-81
2021/07/22 02:12:36;;;;;;;38.55;35.80;;;;;;;18.01;100.00;101181.00;5022765;28;20050;-78
2021/07/22 02:15:03;;;;;;;37.22;34.65;;;;;;;17.72;100.00;101174.81;5023559;28;20041;-82
2021/07/22 02:17:30;;;;;;;52.50;48.53;;;;;;;17.05;100.00;101189.69;5028837;28;20049;-78
2021/07/22 02:19:57;;;;;;;40.67;37.15;;;;;;;17.68;100.00;101187.13;5024374;28;20057;-78
2021/07/22 02:22:24;;;;;;;48.97;45.15;;;;;;;16.92;100.00;101188.09;5018926;28;20057;-81
2021/07/22 02:24:51;;;;;;;45.13;41.65;;;;;;;17.22;100.00;101191.63;5025075;28;20042;-80
2021/07/22 02:27:17;;;;;;;39.80;36.80;;;;;;;17.54;100.00;101192.78;5026445;28;20053;-79
2021/07/22 02:29:46;;;;;;;42.38;39.05;;;;;;;17.12;100.00;101187.66;5024707;28;20053;-78
2021/07/22 02:32:12;;;;;;;50.03;46.13;;;;;;;16.41;100.00;101186.94;5023896;28;20038;-81
2021/07/22 02:34:39;;;;;;;46.80;43.30;;;;;;;17.21;100.00;101195.34;5022043;28;20053;-77
2021/07/22 02:37:06;;;;;;;42.78;39.22;;;;;;;17.08;100.00;101199.13;5022638;28;20046;-80
2021/07/22 02:39:35;;;;;;;46.08;42.38;;;;;;;16.52;100.00;101200.56;5015895;28;20115;-78
2021/07/22 02:42:02;;;;;;;44.63;40.92;;;;;;;16.29;100.00;101198.72;5020422;28;20141;-78
2021/07/22 02:44:29;;;;;;;48.92;45.13;;;;;;;16.74;100.00;101196.25;5021478;28;20045;-81
2021/07/22 02:46:57;;;;;;;42.05;39.00;;;;;;;16.86;100.00;101204.31;5022778;28;20127;-79
2021/07/22 02:49:23;;;;;;;44.22;40.63;;;;;;;16.74;100.00;101196.25;5021199;28;20448;-80
2021/07/22 02:51:50;;;;;;;53.05;48.85;;;;;;;16.05;100.00;101205.91;5023934;28;20593;-80
2021/07/22 02:54:17;;;;;;;56.55;52.05;;;;;;;16.30;100.00;101211.03;5015433;28;20053;-81
2021/07/22 02:56:44;;;;;;;50.75;47.42;;;;;;;16.78;100.00;101210.03;5027888;28;20045;-81
2021/07/22 02:59:10;;;;;;;47.33;44.25;;;;;;;17.00;100.00;101202.19;5026310;28;20131;-81
2021/07/22 03:01:37;;;;;;;45.88;42.67;;;;;;;16.83;100.00;101204.78;5023154;28;20058;-79
2021/07/22 03:04:05;;;;;;;50.70;47.20;;;;;;;16.55;100.00;101203.63;5017384;28;20054;-79
2021/07/22 03:06:32;;;;;;;49.20;45.80;;;;;;;16.71;100.00;101202.88;5025600;28;20380;-78
2021/07/22 03:08:59;;;;;;;52.33;48.33;;;;;;;16.40;100.00;101208.59;5021156;28;20064;-81
2021/07/22 03:11:25;;;;;;;48.08;44.33;;;;;;;16.98;100.00;101207.78;5019146;28;20045;-81
2021/07/22 03:13:52;;;;;;;51.63;47.83;;;;;;;16.36;100.00;101204.75;5022444;28;20491;-84
2021/07/22 03:16:19;;;;;;;46.00;42.70;;;;;;;16.93;100.00;101213.03;5019683;28;20502;-81
2021/07/22 03:18:46;;;;;;;49.72;46.25;;;;;;;17.20;100.00;101202.59;5023008;28;20046;-81
2021/07/22 03:21:14;;;;;;;46.65;43.40;;;;;;;17.39;100.00;101205.91;5023367;28;20042;-81
2021/07/22 03:23:41;;;;;;;39.10;36.30;;;;;;;17.55;100.00;101207.00;5022415;28;20049;-78
2021/07/22 03:26:07;;;;;;;42.30;39.30;;;;;;;17.51;100.00;101205.88;5026647;28;20478;-81
2021/07/22 03:28:34;;;;;;;41.63;38.72;;;;;;;17.73;100.00;101217.56;5021591;28;20061;-81
2021/07/22 03:31:01;;;;;;;45.78;42.58;;;;;;;17.59;100.00;101209.00;5025666;28;20119;-78
2021/07/22 03:33:27;;;;;;;43.95;40.85;;;;;;;17.68;100.00;101208.59;5017663;28;20054;-79
2021/07/22 03:35:54;;;;;;;39.95;36.95;;;;;;;17.80;100.00;101212.09;5023898;28;20113;-81
2021/07/22 03:38:22;;;;;;;39.60;36.85;;;;;;;17.80;100.00;101217.44;5015629;28;20049;-77
2021/07/22 03:40:49;;;;;;;42.17;39.15;;;;;;;17.84;100.00;101210.53;5020918;28;20500;-79
2021/07/22 03:43:16;;;;;;;43.63;40.22;;;;;;;18.10;100.00;101211.78;5025526;28;20060;-80
2021/07/22 03:45:42;;;;;;;43.72;40.55;;;;;;;17.97;100.00;101207.56;5021256;28;20053;-81
2021/07/22 03:48:12;;;;;;;42.28;38.83;;;;;;;18.06;100.00;101205.25;5024847;28;20053;-81
2021/07/22 03:50:39;;;;;;;39.70;36.53;;;;;;;18.03;100.00;101211.13;5021086;28;20069;-81
2021/07/22 03:53:07;;;;;;;45.03;41.72;;;;;;;18.15;100.00;101211.03;5026799;28;20056;-79
2021/07/22 03:55:35;;;;;;;44.40;41.00;;;;;;;18.25;100.00;101208.53;5025282;28;20136;-81
2021/07/22 03:58:02;;;;;;;43.70;40.50;;;;;;;18.04;100.00;101208.19;5021113;28;20049;-81
2021/07/22 04:00:31;;;;;;;47.88;43.97;;;;;;;17.85;100.00;101198.72;5024545;28;20054;-78
2021/07/22 04:03:00;;;;;;;49.80;45.85;;;;;;;17.74;100.00;101210.34;5021812;28;20062;-79
2021/07/22 04:05:27;;;;;;;45.72;42.22;;;;;;;17.66;100.00;101214.22;5018486;28;20053;-82
2021/07/22 04:07:58;;;;;;;54.13;50.38;;;;;;;17.87;100.00;101201.97;5018733;28;20489;-81
2021/07/22 04:10:25;;;;;;;46.83;43.28;;;;;;;18.10;100.00;101214.47;5028643;28;20126;-81
2021/07/22 04:12:58;;;;;;;45.17;41.85;;;;;;;17.88;100.00;101208.16;5025609;28;20049;-81
2021/07/22 04:15:25;;;;;;;48.28;44.88;;;;;;;18.00;100.00;101212.44;5020989;28;20053;-79
2021/07/22 04:17:53;;;;;;;54.17;50.30;;;;;;;17.87;100.00;101217.28;5022066;28;20057;-78
2021/07/22 04:20:20;;;;;;;47.83;44.28;;;;;;;18.20;100.00;101219.19;5022094;28;20481;-81
2021/07/22 04:22:49;;;;;;;47.63;44.08;;;;;;;17.88;100.00;101219.72;5020617;28;20049;-79
2021/07/22 04:25:15;;;;;;;50.55;46.95;;;;;;;18.42;100.00;101216.56;5023978;28;20048;-79
2021/07/22 04:27:43;;;;;;;44.83;41.72;;;;;;;18.62;100.00;101219.56;5024658;28;20045;-81
2021/07/22 04:30:12;;;;;;;44.97;41.53;;;;;;;18.52;100.00;101217.56;5023693;28;20054;-81
2021/07/22 04:32:39;;;;;;;41.50;38.33;;;;;;;18.76;100.00;101218.19;5023006;28;20050;-79
2021/07/22 04:35:08;;;;;;;40.85;37.75;;;;;;;19.01;100.00;101219.59;5021420;28;20474;-78
2021/07/22 04:37:35;;;;;;;60.53;56.03;;;;;;;18.56;100.00;101219.75;5021403;28;20144;-79
2021/07/22 04:40:02;;;;;;;44.28;40.47;;;;;;;18.82;100.00;101218.25;5024556;28;20077;-79
2021/07/22 04:42:29;;;;;;;43.42;39.88;;;;;;;18.94;100.00;101216.25;5021275;28;20493;-81
2021/07/22 04:44:56;;;;;;;45.22;41.58;;;;;;;19.03;100.00;101220.13;5024600;28;20451;-80
2021/07/22 04:47:24;;;;;;;53.17;49.47;;;;;;;18.87;100.00;101224.50;5018621;28;20044;-81
2021/07/22 04:49:51;;;;;;;57.03;53.10;;;;;;;19.07;100.00;101217.78;5027088;28;20056;-79
2021/07/22 04:52:18;;;;;;;43.22;40.10;;;;;;;18.74;100.00;101231.06;5022508;28;20053;-81
2021/07/22 04:54:45;;;;;;;39.72;36.90;;;;;;;18.74;100.00;101228.38;5025003;28;20057;-79
2021/07/22 04:57:11;;;;;;;39.03;35.95;;;;;;;18.56;100.00;101231.31;5020692;28;20116;-79
2021/07/22 04:59:39;;;;;;;58.67;54.60;;;;;;;24.63;100.00;101212.25;5022672;28;20061;-80
2021/07/22 05:02:06;;;;;;;32.72;30.63;;;;;;;26.13;100.00;101204.47;5021771;28;20067;-80
2021/07/22 05:04:35;;;;;;;28.00;26.30;;;;;;;26.57;100.00;101211.34;5020504;28;20486;-80
2021/07/22 05:07:02;;;;;;;25.70;24.10;;;;;;;26.65;100.00;101212.53;5020713;28;20065;-78
2021/07/22 05:09:29;;;;;;;31.27;28.67;;;;;;;26.16;100.00;101214.78;5018834;28;20061;-82
2021/07/22 05:11:56;;;;;;;29.63;27.45;;;;;;;25.15;100.00;101211.66;5030501;28;20053;-80
2021/07/22 05:14:23;;;;;;;31.23;28.73;;;;;;;25.53;100.00;101212.47;5025141;28;20367;-82
2021/07/22 05:16:51;;;;;;;36.13;33.92;;;;;;;25.17;100.00;101212.97;5033419;28;20056;-80
2021/07/22 05:19:18;;;;;;;38.72;35.22;;;;;;;23.68;100.00;101218.16;5036028;28;20108;-83
2021/07/22 05:21:47;;;;;;;45.13;41.25;;;;;;;24.51;100.00;101208.28;5029240;28;20056;-81
2021/07/22 05:24:13;;;;;;;39.08;35.92;;;;;;;25.01;100.00;101208.81;5035568;28;20402;-83
2021/07/22 05:26:41;;;;;;;35.78;33.28;;;;;;;24.33;100.00;101207.91;5032174;28;20080;-78
2021/07/22 05:29:07;;;;;;;35.65;33.00;;;;;;;20.62;100.00;101222.50;5031657;28;20140;-78
2021/07/22 05:31:34;;;;;;;33.55;31.05;;;;;;;19.79;100.00;101220.22;5031220;28;20131;-78
2021/07/22 05:34:01;;;;;;;37.50;34.88;;;;;;;19.41;100.00;101229.22;5031552;28;20685;-79
2021/07/22 05:36:27;;;;;;;35.83;33.15;;;;;;;19.62;100.00;101230.25;5031356;28;20056;-78
2021/07/22 05:38:56;;;;;;;43.75;40.75;;;;;;;19.47;100.00;101230.91;5031657;28;21627;-78
2021/07/22 05:41:22;;;;;;;39.15;36.65;;;;;;;19.52;100.00;101220.19;5023509;28;20049;-78
2021/07/22 05:43:49;;;;;;;37.55;34.95;;;;;;;19.43;100.00;101227.91;5025127;28;20475;-77
2021/07/22 05:46:19;;;;;;;37.13;34.25;;;;;;;19.64;100.00;101226.28;5025568;28;20053;-78
2021/07/22 05:48:45;;;;;;;40.08;36.97;;;;;;;19.71;100.00;101228.75;5025192;28;20057;-78
2021/07/22 05:51:12;;;;;;;39.15;36.30;;;;;;;19.70;100.00;101223.59;5024429;28;20053;-78
2021/07/22 05:53:39;;;;;;;37.35;34.63;;;;;;;19.78;100.00;101215.06;5015078;28;20453;-77
2021/07/22 05:56:09;;;;;;;40.17;37.47;;;;;;;19.77;100.00;101219.66;5022381;28;20492;-78
2021/07/22 05:58:36;;;;;;;33.70;31.23;;;;;;;19.72;100.00;101222.28;5025972;28;20077;-79
2021/07/22 06:01:06;;;;;;;38.15;35.28;;;;;;;20.10;100.00;101220.50;5028999;28;20478;-80
2021/07/22 06:03:33;;;;;;;36.92;34.20;;;;;;;19.59;100.00;101226.19;5016415;28;20125;-78
2021/07/22 06:06:00;;;;;;;34.35;31.73;;;;;;;19.73;100.00;101225.78;5025180;28;20054;-78
2021/07/22 06:08:26;;;;;;;36.65;34.08;;;;;;;19.74;100.00;101230.94;5022761;28;20077;-79
2021/07/22 06:10:53;;;;;;;36.53;33.75;;;;;;;20.16;100.00;101226.75;5016337;28;20524;-78
2021/07/22 06:13:21;;;;;;;43.60;40.80;;;;;;;20.22;100.00;101220.31;5024670;28;20048;-78
2021/07/22 06:15:48;;;;;;;32.78;30.10;;;;;;;20.06;100.00;101227.44;5024418;28;20049;-79
2021/07/22 06:18:14;;;;;;;31.38;28.88;;;;;;;20.20;100.00;101225.16;5023243;28;20116;-78
2021/07/22 06:20:41;;;;;;;32.67;29.90;;;;;;;20.01;100.00;101224.72;5022664;28;20064;-79
2021/07/22 06:23:08;;;;;;;30.33;27.83;;;;;;;20.26;100.00;101224.13;5025011;28;20053;-79
2021/07/22 06:25:35;;;;;;;28.88;26.27;;;;;;;20.76;100.00;101226.38;5023709;28;20050;-78
2021/07/22 06:28:01;;;;;;;29.98;27.25;;;;;;;20.90;100.00;101225.91;5019940;28;20115;-79
2021/07/22 06:30:31;;;;;;;31.25;28.55;;;;;;;20.99;100.00;101227.81;5024641;28;20053;-78
2021/07/22 06:32:57;;;;;;;28.63;26.13;;;;;;;21.50;100.00;101224.53;5022894;28;20050;-79
2021/07/22 06:35:24;;;;;;;30.60;27.80;;;;;;;21.42;100.00;101225.03;5021520;28;20092;-79
2021/07/22 06:37:51;;;;;;;28.77;26.25;;;;;;;21.15;100.00;101223.31;5021104;28;20120;-78
2021/07/22 06:40:18;;;;;;;29.42;26.95;;;;;;;21.29;100.00;101226.34;5018480;28;20057;-79
2021/07/22 06:42:44;;;;;;;30.70;28.15;;;;;;;21.34;100.00;101236.34;5022848;28;20054;-78
2021/07/22 06:45:28;;;;;;;29.48;27.08;;;;;;;21.85;100.00;101236.50;5021714;28;20049;-79
2021/07/22 06:47:57;;;;;;;29.63;27.33;;;;;;;21.62;100.00;101244.03;5020554;28;20054;-78
2021/07/22 06:50:24;;;;;;;30.33;27.55;;;;;;;21.75;100.00;101237.28;5022455;28;20060;-80
2021/07/22 06:52:50;;;;;;;29.10;26.60;;;;;;;21.72;100.00;101233.25;5025264;28;20053;-78
2021/07/22 06:55:17;;;;;;;30.25;27.77;;;;;;;22.58;100.00;101230.81;5026576;28;20486;-80
2021/07/22 06:57:44;;;;;;;30.00;27.25;;;;;;;21.60;100.00;101234.53;5021529;28;20426;-78
2021/07/22 07:00:12;;;;;;;30.60;28.10;;;;;;;21.98;100.00;101232.44;5022188;28;20383;-78
2021/07/22 07:02:39;;;;;;;30.35;27.67;;;;;;;22.71;100.00;101230.25;5019484;28;20065;-78
2021/07/22 07:05:07;;;;;;;28.05;25.55;;;;;;;22.27;100.00;101225.47;5023896;28;20406;-78
2021/07/22 07:07:34;;;;;;;29.73;27.33;;;;;;;22.47;100.00;101230.00;5023462;28;20061;-78
2021/07/22 07:10:01;;;;;;;28.30;25.60;;;;;;;23.34;100.00;101232.47;5013279;28;20111;-78
2021/07/22 07:12:28;;;;;;;28.52;25.80;;;;;;;22.87;100.00;101231.00;5026922;28;20115;-77
2021/07/22 07:14:54;;;;;;;27.60;25.10;;;;;;;24.34;100.00;101225.00;5023287;28;20468;-78
2021/07/22 07:17:21;;;;;;;27.50;25.13;;;;;;;23.18;100.00;101222.78;5017798;28;20052;-77
2021/07/22 07:19:48;;;;;;;28.38;25.85;;;;;;;23.36;100.00;101229.47;5025808;28;20041;-77
2021/07/22 07:22:17;;;;;;;29.70;27.00;;;;;;;23.82;100.00;101232.75;5026087;28;20456;-77
2021/07/22 07:24:44;;;;;;;29.25;26.67;;;;;;;23.14;100.00;101237.97;5019249;28;20046;-78
2021/07/22 07:27:11;;;;;;;29.35;26.73;;;;;;;23.20;100.00;101237.69;5023050;28;20128;-78
2021/07/22 07:29:37;;;;;;;27.15;24.75;;;;;;;23.08;100.00;101239.91;5023133;28;20517;-78
2021/07/22 07:32:04;;;;;;;27.98;25.67;;;;;;;23.32;100.00;101226.50;5022809;28;20548;-77
2021/07/22 07:34:31;;;;;;;29.23;26.83;;;;;;;22.44;100.00;101235.16;5021004;28;20450;-78
2021/07/22 07:36:58;;;;;;;27.80;25.10;;;;;;;22.48;100.00;101237.06;5022589;28;20046;-79
2021/07/22 07:39:26;;;;;;;27.67;25.30;;;;;;;23.10;100.00;101229.59;5015895;28;20103;-77
2021/07/22 07:41:53;;;;;;;27.52;25.17;;;;;;;22.74;100.00;101237.81;5020189;28;20053;-78
2021/07/22 07:44:20;;;;;;;28.40;25.83;;;;;;;22.62;100.00;101235.41;5022405;28;20056;-77
2021/07/22 07:46:47;;;;;;;29.08;26.35;;;;;;;23.01;100.00;101239.41;5021947;28;20379;-81
2021/07/22 07:49:14;;;;;;;29.35;26.63;;;;;;;23.27;100.00;101243.63;5026045;28;20095;-77
2021/07/22 07:51:40;;;;;;;31.30;27.55;;;;;;;23.03;100.00;101242.66;5023615;28;20120;-77
2021/07/22 07:54:07;;;;;;;28.83;26.17;;;;;;;22.78;100.00;101236.16;5014166;28;20468;-77
2021/07/22 07:56:35;;;;;;;30.73;27.73;;;;;;;23.07;100.00;101239.09;5020956;28;20057;-81
2021/07/22 07:59:02;;;;;;;29.95;27.17;;;;;;;23.07;100.00;101236.38;5022036;28;20049;-77
2021/07/22 08:01:30;;;;;;;32.08;28.90;;;;;;;23.43;100.00;101238.13;5020379;28;20064;-78
2021/07/22 08:03:57;;;;;;;31.65;26.70;;;;;;;23.40;100.00;101228.66;5025524;28;20053;-78
2021/07/22 08:06:24;;;;;;;29.92;27.23;;;;;;;23.16;100.00;101235.81;5020520;28;20045;-78
2021/07/22 08:08:51;;;;;;;28.08;25.35;;;;;;;23.56;100.00;101237.50;5016435;28;20069;-77
2021/07/22 08:11:19;;;;;;;30.67;27.50;;;;;;;23.38;100.00;101235.44;5021974;28;20486;-79
2021/07/22 08:13:47;;;;;;;27.30;24.92;;;;;;;23.41;100.00;101232.16;5022966;28;20046;-77
2021/07/22 08:16:17;;;;;;;27.05;24.45;;;;;;;23.47;100.00;101236.47;5022849;28;20057;-78
2021/07/22 08:18:45;;;;;;;26.45;24.17;;;;;;;23.34;100.00;101237.91;5022636;28;20128;-77
2021/07/22 08:21:12;;;;;;;26.83;24.17;;;;;;;23.55;100.00;101238.59;5020846;28;20111;-77
2021/07/22 08:23:39;;;;;;;25.15;22.88;;;;;;;23.59;100.00;101233.41;5030172;28;20053;-77
2021/07/22 08:26:06;;;;;;;25.80;23.67;;;;;;;23.96;100.00;101235.63;5020464;28;20053;-80
2021/07/22 08:28:33;;;;;;;25.80;23.60;;;;;;;23.95;100.00;101232.09;5023782;28;20049;-77
2021/07/22 08:31:02;;;;;;;25.35;23.23;;;;;;;24.28;100.00;101226.16;5022563;28;20126;-77
2021/07/22 08:33:28;;;;;;;25.23;23.13;;;;;;;24.14;100.00;101229.50;5029155;28;20061;-77
2021/07/22 08:35:55;;;;;;;24.58;22.40;;;;;;;23.84;100.00;101246.81;5021292;28;20122;-79
2021/07/22 08:38:22;;;;;;;23.30;21.40;;;;;;;23.97;100.00;101238.06;5014888;28;20479;-77
2021/07/22 08:40:49;;;;;;;23.98;21.80;;;;;;;24.14;100.00;101243.06;5022647;28;20100;-78
2021/07/22 08:43:15;;;;;;;25.25;23.00;;;;;;;24.04;100.00;101239.66;5016771;28;20119;-77
2021/07/22 08:45:42;;;;;;;25.25;23.17;;;;;;;24.34;100.00;101236.66;5021124;28;20482;-77
2021/07/22 08:48:12;;;;;;;23.25;21.20;;;;;;;24.11;100.00;101240.94;5027076;28;20549;-79
2021/07/22 08:50:39;;;;;;;24.10;22.00;;;;;;;24.10;100.00;101241.22;5028866;28;20057;-78
2021/07/22 08:53:06;;;;;;;23.77;21.60;;;;;;;24.38;100.00;101245.03;5021047;28;20054;-77
2021/07/22 08:55:33;;;;;;;22.75;20.65;;;;;;;24.24;100.00;101242.19;5020090;28;20581;-78
2021/07/22 08:58:00;;;;;;;23.50;21.60;;;;;;;24.21;100.00;101240.06;5030264;28;20049;-78
2021/07/22 09:00:30;;;;;;;23.30;21.30;;;;;;;23.95;100.00;101239.44;5030963;28;20046;-77
2021/07/22 09:02:57;;;;;;;23.38;21.48;;;;;;;24.08;100.00;101240.69;5033023;28;20057;-77
2021/07/22 09:05:29;;;;;;;23.58;21.45;;;;;;;24.79;100.00;101240.03;5028188;28;20062;-77
2021/07/22 09:07:55;;;;;;;23.92;22.00;;;;;;;24.66;100.00;101235.28;5025918;28;20049;-79
2021/07/22 09:10:23;;;;;;;22.35;20.55;;;;;;;25.19;100.00;101240.69;5028189;28;20050;-78
2021/07/22 09:12:51;;;;;;;22.75;20.70;;;;;;;25.11;100.00;101235.84;5024667;28;20057;-78
2021/07/22 09:15:24;;;;;;;22.83;20.90;;;;;;;24.98;100.00;101233.84;5031046;28;20132;-78
2021/07/22 09:17:51;;;;;;;22.67;20.77;;;;;;;25.62;100.00;101231.66;5029186;28;20060;-79
2021/07/22 09:20:35;;;;;;;23.20;21.30;;;;;;;25.85;100.00;101228.09;5030209;28;20059;-79
2021/07/22 09:23:03;;;;;;;21.83;19.95;;;;;;;25.84;100.00;101234.63;5026590;28;20049;-82
2021/07/22 09:25:44;;;;;;;22.70;20.80;;;;;;;25.31;100.00;101232.09;5020043;28;20065;-78
2021/07/22 09:28:14;;;;;;;22.55;20.77;;;;;;;25.69;100.00;101232.09;5024315;28;20112;-77
2021/07/22 09:30:55;;;;;;;23.15;21.25;;;;;;;25.39;100.00;101236.06;5021057;28;20460;-78
2021/07/22 09:33:32;;;;;;;23.20;21.10;;;;;;;25.20;100.00;101231.41;5035392;28;20566;-80
2021/07/22 09:36:01;;;;;;;24.10;22.00;;;;;;;25.45;100.00;101222.13;5023994;28;20132;-78
2021/07/22 09:38:28;;;;;;;22.92;20.92;;;;;;;26.03;100.00;101237.31;5030304;28;20045;-79
2021/07/22 09:40:55;;;;;;;22.00;20.10;;;;;;;25.71;100.00;101229.91;5022104;28;20160;-78
2021/07/22 09:43:37;;;;;;;23.15;21.17;;;;;;;25.50;100.00;101224.75;5027886;28;20056;-78
2021/07/22 09:46:03;;;;;;;23.70;21.90;;;;;;;24.89;100.00;101225.53;5025084;28;20124;-79
2021/07/22 09:48:30;;;;;;;24.02;22.13;;;;;;;25.16;100.00;101230.38;5030194;28;20111;-80
2021/07/22 09:50:57;;;;;;;24.27;21.75;;;;;;;25.50;100.00;101227.47;5023614;28;20057;-78
2021/07/22 09:53:27;;;;;;;24.00;22.08;;;;;;;25.44;100.00;101225.94;5032313;28;20110;-78
2021/07/22 09:55:55;;;;;;;24.33;22.42;;;;;;;26.45;100.00;101225.44;5029226;28;20132;-79
2021/07/22 09:58:22;;;;;;;23.63;21.83;;;;;;;26.47;100.00;101222.38;5024562;28;20122;-78
2021/07/22 10:00:51;;;;;;;23.70;21.85;;;;;;;27.31;100.00;101222.09;5027175;28;20052;-78
2021/07/22 10:03:20;;;;;;;23.75;22.05;;;;;;;27.37;100.00;101212.69;5023953;28;20595;-78
2021/07/22 10:05:51;;;;;;;24.00;21.80;;;;;;;27.86;93.16;101215.69;5029305;28;20080;-79
2021/07/22 10:08:18;;;;;;;23.75;21.77;;;;;;;27.36;100.00;101218.47;5028745;28;20049;-78
2021/07/22 10:10:51;;;;;;;24.48;22.30;;;;;;;27.07;100.00;101210.63;5030121;28;20088;-79
2021/07/22 10:13:23;;;;;;;24.98;22.90;;;;;;;26.90;96.93;101206.59;5028576;28;20076;-79
2021/07/22 10:15:51;;;;;;;22.60;20.70;;;;;;;27.29;95.11;101207.97;5027649;28;20045;-78
2021/07/22 10:18:23;;;;;;;23.05;21.02;;;;;;;27.82;97.29;101206.50;5019300;28;20064;-78
2021/07/22 10:20:53;;;;;;;24.30;22.20;;;;;;;28.15;91.01;101211.72;5021752;28;20069;-78
2021/07/22 10:23:20;;;;;;;23.67;21.77;;;;;;;28.52;92.87;101207.72;5017095;28;20053;-78
2021/07/22 10:25:50;;;;;;;22.85;20.88;;;;;;;28.72;83.25;101198.16;5020756;28;20042;-78
2021/07/22 10:28:18;;;;;;;24.58;21.73;;;;;;;27.52;89.03;101208.81;5017739;28;20056;-78
2021/07/22 10:30:47;;;;;;;24.38;22.17;;;;;;;28.35;96.81;101205.69;5017815;28;20399;-78
2021/07/22 10:33:18;;;;;;;24.77;22.52;;;;;;;28.38;78.63;101204.25;5023294;28;20073;-78
2021/07/22 10:35:45;;;;;;;25.13;22.92;;;;;;;27.94;72.27;101211.41;5027807;28;20060;-78
2021/07/22 10:38:14;;;;;;;25.25;23.05;;;;;;;27.62;71.42;101203.09;5019320;28;20038;-78
2021/07/22 10:40:55;;;;;;;25.52;23.17;;;;;;;27.78;100.00;101203.59;5020084;28;20550;-78
2021/07/22 10:43:42;;;;;;;24.48;22.25;;;;;;;29.00;88.88;101196.78;5018608;28;20081;-79
2021/07/22 10:46:11;;;;;;;23.45;21.60;;;;;;;27.89;73.17;101197.88;5026812;28;20038;-78
2021/07/22 10:48:39;;;;;;;23.92;21.77;;;;;;;29.10;77.85;101192.16;5026680;28;20057;-78
2021/07/22 10:51:14;;;;;;;23.88;21.90;;;;;;;28.71;75.36;101189.13;5025991;28;20054;-78
2021/07/22 10:53:48;;;;;;;23.77;21.75;;;;;;;29.24;74.44;101194.75;5026612;28;20068;-80
2021/07/22 10:56:54;;;;;;;23.83;21.67;;;;;;;29.09;68.86;101191.34;5021075;28;20127;-78
2021/07/22 10:59:55;;;;;;;23.17;20.85;;;;;;;29.09;70.50;101185.88;5016327;28;20104;-78
2021/07/22 11:02:46;;;;;;;24.23;21.98;;;;;;;28.35;59.94;101186.56;5012493;28;20510;-77
2021/07/22 11:05:57;;;;;;;23.88;22.17;;;;;;;28.69;85.09;101180.47;5006968;28;20368;-77
2021/07/22 11:08:26;;;;;;;23.90;22.30;;;;;;;29.32;77.25;101180.25;5016812;28;20073;-77
2021/07/22 11:10:55;;;;;;;26.63;24.83;;;;;;;28.57;62.99;101168.53;5022011;28;20063;-77